Time;durP1;ratioP1;P1;durP2;ratioP2;P2;SDS_P1;SDS_P2;PMS_P1;PMS_P2;Temp;Humidity;BMP_temperature;BMP_pressure;BME280_temperature;BME280_humidity;BME280_pressure;Samples;Min_cycle;Max_cycle;Signal;HPM_P1;HPM_P2
2024/03/22 10:40:35;;;;;;;16.10;8.80;;;;;;;23.25;22.83;101035.20;109459;1255;67286;31
2024/03/22 15:18:47;;;;;;;12.80;6.00;;;;;;;24.21;21.83;100766.92;108463;1259;66348;-88
2024/03/22 15:21:12;;;;;;;9.70;5.50;;;;;;;24.22;21.76;100763.35;108381;1260;68501;-89
2024/03/22 15:23:40;;;;;;;8.00;5.10;;;;;;;24.24;21.78;100759.03;108414;1262;68439;-89
2024/03/22 15:26:06;;;;;;;9.90;5.40;;;;;;;24.24;21.84;100760.00;108171;1260;68298;-90
2024/03/22 15:34:37;;;;;;;6.70;5.30;;;;;;;24.22;21.66;100760.73;109451;1256;67353;-88
2024/03/22 15:42:38;;;;;;;11.00;5.60;;;;;;;24.21;21.55;100757.81;108279;1257;68291;-89
2024/03/22 15:48:09;;;;;;;11.40;5.50;;;;;;;24.20;21.66;100754.23;108607;1259;66331;-89
2024/03/22 15:50:35;;;;;;;13.60;5.80;;;;;;;24.20;21.46;100753.82;108229;1259;72926;-90
2024/03/22 15:53:01;;;;;;;11.30;5.20;;;;;;;24.20;21.54;100754.28;108112;1259;68256;-88
2024/03/22 15:58:30;;;;;;;15.20;5.70;;;;;;;24.17;21.54;100752.55;109457;1256;68346;-86
2024/03/22 16:01:04;;;;;;;12.70;5.70;;;;;;;24.16;21.49;100754.98;107556;1257;68188;-91
2024/03/22 16:03:30;;;;;;;12.50;6.00;;;;;;;24.16;21.60;100758.22;107451;1257;72677;-89
2024/03/22 16:05:55;;;;;;;14.20;5.50;;;;;;;24.16;21.41;100758.69;107914;1258;68294;-86
2024/03/22 16:08:21;;;;;;;10.80;5.60;;;;;;;24.15;21.41;100761.26;107451;1258;68500;-89
2024/03/22 16:10:47;;;;;;;18.00;5.60;;;;;;;24.15;21.43;100758.13;108219;1257;67209;-89
2024/03/22 16:13:17;;;;;;;10.20;5.80;;;;;;;24.14;21.51;100757.92;108278;1255;66464;31
2024/03/22 16:18:33;;;;;;;14.30;5.50;;;;;;;24.13;21.52;100757.32;108146;1256;68342;-89
2024/03/22 16:20:59;;;;;;;17.10;6.00;;;;;;;24.12;21.61;100760.91;108155;1258;68230;-91
2024/03/22 16:23:25;;;;;;;28.00;6.70;;;;;;;24.12;21.48;100759.14;108245;1257;67838;-89
2024/03/22 16:25:51;;;;;;;35.30;7.70;;;;;;;24.11;21.67;100755.08;107997;1261;68432;-89
2024/03/22 16:28:17;;;;;;;29.90;7.10;;;;;;;24.10;21.51;100748.66;108011;1256;68481;-89
2024/03/22 16:33:29;;;;;;;31.20;7.70;;;;;;;24.08;21.71;100755.47;108010;1256;68346;-89
2024/03/22 16:35:54;;;;;;;24.20;6.80;;;;;;;24.07;21.86;100756.77;107894;1256;68361;-89
2024/03/22 16:38:20;;;;;;;20.70;7.30;;;;;;;24.08;21.77;100758.09;107874;1261;68539;-90
2024/03/22 16:40:46;;;;;;;23.80;6.90;;;;;;;24.07;21.85;100757.74;108035;1257;67152;-89
2024/03/22 16:43:14;;;;;;;13.20;6.20;;;;;;;24.07;21.89;100756.65;108147;1258;68423;-89
2024/03/22 16:48:30;;;;;;;12.60;6.30;;;;;;;24.07;22.00;100754.44;109284;1257;73990;-89
2024/03/22 16:53:57;;;;;;;16.20;6.70;;;;;;;24.07;21.95;100752.95;108677;1256;68766;-89
2024/03/22 17:02:26;;;;;;;10.60;6.40;;;;;;;24.08;22.02;100760.02;107910;1260;68356;-88
2024/03/22 17:04:52;;;;;;;11.90;6.60;;;;;;;24.09;22.06;100763.25;108470;1257;66388;-89
2024/03/22 17:07:17;;;;;;;15.50;6.70;;;;;;;24.11;21.95;100766.39;107879;1257;68384;-88
2024/03/22 17:09:47;;;;;;;13.50;6.30;;;;;;;24.11;21.97;100767.72;107651;1257;68438;-91
2024/03/22 17:12:13;;;;;;;16.20;6.40;;;;;;;24.12;22.11;100768.58;108103;1257;67183;-89
2024/03/22 17:14:39;;;;;;;12.60;6.20;;;;;;;24.13;22.03;100770.02;108272;1256;68351;-89
2024/03/22 17:17:04;;;;;;;16.30;6.70;;;;;;;24.13;21.94;100770.34;107716;1256;68490;-89
2024/03/22 17:19:30;;;;;;;18.10;7.10;;;;;;;24.13;22.02;100772.44;107797;1257;68375;-89
2024/03/22 17:21:55;;;;;;;14.10;6.40;;;;;;;24.13;21.97;100773.73;107890;1256;68426;-88
2024/03/22 17:24:21;;;;;;;15.60;7.00;;;;;;;24.12;21.85;100778.34;107694;1256;68414;-89
2024/03/22 17:26:47;;;;;;;14.10;6.80;;;;;;;24.12;21.87;100781.29;107914;1256;68366;-89
2024/03/22 17:29:12;;;;;;;13.40;6.90;;;;;;;24.12;22.11;100781.14;108226;1256;68368;-88
2024/03/22 17:31:38;;;;;;;11.70;6.50;;;;;;;24.12;21.95;100785.04;109544;1256;67611;-88
2024/03/22 17:34:05;;;;;;;15.40;6.90;;;;;;;24.13;21.96;100782.72;109620;1255;67391;-89
2024/03/22 17:39:09;;;;;;;14.70;6.90;;;;;;;24.12;21.96;100783.13;107722;1260;68346;-88
2024/03/22 17:41:35;;;;;;;15.50;7.10;;;;;;;24.13;21.82;100785.02;108315;1256;68435;-88
2024/03/22 17:44:01;;;;;;;12.50;6.80;;;;;;;24.13;22.00;100787.18;108097;1260;68745;-89
2024/03/22 17:46:27;;;;;;;12.80;7.50;;;;;;;24.13;21.94;100791.09;107719;1257;68523;-88
2024/03/22 17:48:57;;;;;;;12.50;7.20;;;;;;;24.10;21.97;100788.54;107952;1258;68361;31
2024/03/22 17:51:22;;;;;;;11.00;7.00;;;;;;;24.07;22.15;100791.30;107805;1256;68297;-88
2024/03/22 17:53:48;;;;;;;11.20;7.00;;;;;;;24.06;22.27;100793.05;108232;1258;68369;-89
2024/03/22 17:56:15;;;;;;;14.40;7.50;;;;;;;24.05;22.27;100796.77;108312;1258;68478;-88
2024/03/22 17:58:40;;;;;;;12.90;7.20;;;;;;;24.04;22.19;100794.21;108397;1257;68372;-88
2024/03/22 18:01:06;;;;;;;10.40;7.80;;;;;;;24.04;22.11;100794.05;108329;1255;68249;-88
2024/03/22 18:09:58;;;;;;;8.90;7.10;;;;;;;24.05;22.14;100794.55;109463;1256;72387;31
2024/03/22 18:15:06;;;;;;;12.40;7.80;;;;;;;24.07;22.22;100791.36;108755;1256;68421;-88
2024/03/22 18:17:31;;;;;;;10.20;8.20;;;;;;;24.08;22.28;100792.78;108062;1262;68655;-88
2024/03/22 18:20:00;;;;;;;12.80;8.90;;;;;;;24.09;22.27;100792.36;107660;1265;68446;-88
2024/03/22 18:22:25;;;;;;;15.30;9.30;;;;;;;24.09;22.24;100795.33;108089;1264;73600;-88
2024/03/22 18:24:51;;;;;;;16.60;10.80;;;;;;;24.10;22.36;100793.33;108387;1257;619814;-88
2024/03/22 18:33:12;;;;;;;15.90;10.40;;;;;;;24.10;22.35;100789.17;107597;1263;68340;-89
2024/03/22 18:35:42;;;;;;;16.40;11.10;;;;;;;24.11;22.30;100791.73;107649;1260;66434;-89
2024/03/22 18:38:07;;;;;;;18.20;11.40;;;;;;;24.11;22.26;100785.46;107881;1260;68291;-89
2024/03/22 18:40:33;;;;;;;17.90;12.00;;;;;;;24.11;22.30;100784.64;108229;1264;68445;-89
2024/03/22 18:42:58;;;;;;;19.10;12.40;;;;;;;24.11;22.32;100780.73;108147;1260;68384;-89
2024/03/22 18:45:45;;;;;;;19.20;12.60;;;;;;;24.12;22.35;100774.60;108458;1259;66109;31
2024/03/22 18:48:10;;;;;;;15.70;12.30;;;;;;;24.11;22.41;100772.66;108682;1256;72713;-88
2024/03/22 18:50:36;;;;;;;20.70;12.80;;;;;;;24.12;22.34;100769.93;108552;1256;66471;-88
2024/03/22 18:53:02;;;;;;;15.30;13.00;;;;;;;24.13;22.49;100769.35;108125;1256;68471;-88
2024/03/22 18:55:27;;;;;;;18.20;12.80;;;;;;;24.12;22.43;100767.00;107955;1257;68420;-88
2024/03/22 18:57:53;;;;;;;19.70;12.40;;;;;;;24.13;22.43;100763.91;107807;1256;68395;-88
2024/03/22 19:00:22;;;;;;;14.80;12.30;;;;;;;24.12;22.36;100765.61;107674;1262;68231;-90
2024/03/22 19:02:48;;;;;;;15.00;11.70;;;;;;;24.12;22.39;100765.90;107918;1260;68346;-88
2024/03/22 19:05:13;;;;;;;18.70;12.30;;;;;;;24.12;22.55;100767.40;107659;1263;68516;-88
2024/03/22 19:07:39;;;;;;;16.40;12.10;;;;;;;24.12;22.48;100766.31;107795;1257;68417;-88
2024/03/22 19:10:07;;;;;;;15.30;11.70;;;;;;;24.13;22.43;100765.65;108104;1256;68457;-88
2024/03/22 19:12:40;;;;;;;16.50;11.40;;;;;;;24.12;22.49;100762.77;107888;1256;68410;31
2024/03/22 19:17:54;;;;;;;16.10;10.90;;;;;;;24.11;22.35;100765.05;108137;1256;68327;-89
2024/03/22 19:20:20;;;;;;;16.20;10.80;;;;;;;24.12;22.43;100767.39;108523;1262;68311;-89
2024/03/22 19:22:46;;;;;;;13.50;10.70;;;;;;;24.12;22.40;100760.98;107563;1257;68531;-89
2024/03/22 19:25:12;;;;;;;14.30;10.50;;;;;;;24.12;22.43;100756.91;108051;1257;68200;-89
2024/03/22 19:27:38;;;;;;;16.70;10.90;;;;;;;24.13;22.50;100757.56;108021;1257;69491;-85
2024/03/22 19:32:48;;;;;;;11.80;9.70;;;;;;;24.13;22.42;100757.58;107887;1258;68282;-88
2024/03/22 19:35:15;;;;;;;14.30;9.40;;;;;;;24.13;22.57;100756.09;107794;1261;68285;-87
2024/03/22 19:37:40;;;;;;;12.80;9.90;;;;;;;24.13;22.44;100750.67;107711;1258;68444;-88
2024/03/22 19:40:06;;;;;;;12.90;10.00;;;;;;;24.13;22.49;100750.02;107994;1259;68409;-88
2024/03/22 19:42:36;;;;;;;15.00;10.00;;;;;;;24.13;22.51;100751.98;108064;1260;69088;31
2024/03/22 19:47:45;;;;;;;12.70;9.80;;;;;;;24.13;22.48;100747.40;107827;1256;74423;-88
2024/03/22 19:50:11;;;;;;;13.00;9.80;;;;;;;24.12;22.45;100745.95;107620;1259;68379;-88
2024/03/22 19:52:37;;;;;;;13.20;9.90;;;;;;;24.13;22.36;100742.47;107770;1260;68265;-88
2024/03/22 19:55:04;;;;;;;13.00;10.20;;;;;;;24.12;22.46;100746.23;108139;1256;68436;-88
2024/03/22 19:57:34;;;;;;;10.80;9.40;;;;;;;24.13;22.53;100745.60;108154;1260;68887;-85
2024/03/22 20:02:41;;;;;;;11.20;9.40;;;;;;;24.13;22.41;100749.71;107390;1260;69128;-88
2024/03/22 20:05:07;;;;;;;11.50;9.00;;;;;;;24.14;22.46;100750.73;107436;1260;68332;-88
2024/03/22 20:07:33;;;;;;;14.40;9.70;;;;;;;24.14;22.49;100751.20;107874;1259;68625;-88
2024/03/22 20:09:58;;;;;;;13.00;9.50;;;;;;;24.14;22.42;100753.05;107873;1264;68356;-87
2024/03/22 20:12:24;;;;;;;13.40;9.50;;;;;;;24.14;22.41;100749.55;107681;1260;68351;-87
2024/03/22 20:14:50;;;;;;;10.30;8.90;;;;;;;24.14;22.36;100752.23;107449;1258;68442;-87
2024/03/22 20:17:17;;;;;;;12.70;9.00;;;;;;;24.14;22.28;100755.88;107652;1262;68327;-87
2024/03/22 20:19:43;;;;;;;10.00;8.50;;;;;;;24.14;22.30;100758.44;107902;1258;66797;-88
2024/03/22 20:22:09;;;;;;;11.40;8.70;;;;;;;24.14;22.34;100756.55;107529;1259;72447;-88
2024/03/22 20:24:37;;;;;;;12.00;9.00;;;;;;;24.14;22.39;100759.31;107286;1259;68932;-88
2024/03/22 20:27:04;;;;;;;10.60;9.00;;;;;;;24.14;22.42;100760.45;107435;1258;68337;-88
2024/03/22 20:29:31;;;;;;;12.80;9.00;;;;;;;24.14;22.30;100757.30;107327;1258;68290;-88
2024/03/22 20:31:56;;;;;;;12.20;8.80;;;;;;;24.14;22.38;100755.66;107425;1257;68432;-87
2024/03/22 20:34:22;;;;;;;10.20;9.10;;;;;;;24.14;22.35;100752.23;107391;1259;68496;-88
2024/03/22 20:36:47;;;;;;;10.50;9.20;;;;;;;24.14;22.41;100748.98;107436;1259;68503;-88
2024/03/22 20:39:14;;;;;;;11.20;9.00;;;;;;;24.14;22.46;100745.02;107543;1259;68560;-88
2024/03/22 20:41:39;;;;;;;11.70;8.90;;;;;;;24.14;22.36;100745.73;107412;1260;68406;-88
2024/03/22 20:44:05;;;;;;;12.50;8.90;;;;;;;24.15;22.27;100744.81;107417;1259;68421;-88
2024/03/22 20:46:31;;;;;;;13.10;9.10;;;;;;;24.15;22.33;100743.88;107457;1260;68446;-88
2024/03/22 20:48:57;;;;;;;12.20;8.80;;;;;;;24.14;22.29;100745.63;107422;1258;68404;-88
2024/03/22 20:51:22;;;;;;;12.00;9.00;;;;;;;24.15;22.28;100747.08;107380;1260;68533;-89
2024/03/22 20:53:59;;;;;;;10.30;8.40;;;;;;;24.15;22.26;100747.44;107408;1258;68470;-90
2024/03/22 20:56:28;;;;;;;11.00;8.40;;;;;;;24.15;22.44;100746.10;107396;1258;68524;-88
2024/03/22 20:58:54;;;;;;;12.10;7.80;;;;;;;24.15;22.49;100745.69;107445;1260;67704;-88
2024/03/22 21:01:19;;;;;;;10.40;8.50;;;;;;;24.15;22.33;100747.70;107433;1260;68428;-88
2024/03/22 21:03:45;;;;;;;10.30;8.00;;;;;;;24.15;22.32;100748.98;107694;1262;68397;-88
2024/03/22 21:06:30;;;;;;;10.70;8.30;;;;;;;24.15;22.35;100748.62;107524;1260;74239;-88
2024/03/22 21:08:56;;;;;;;10.50;8.10;;;;;;;24.15;22.24;100749.34;107517;1260;68422;-88
2024/03/22 21:11:22;;;;;;;9.30;7.70;;;;;;;24.15;22.16;100751.66;107295;1264;68449;-88
2024/03/22 21:13:48;;;;;;;9.40;8.10;;;;;;;24.15;22.24;100753.04;107456;1260;68753;-88
2024/03/22 21:16:13;;;;;;;10.10;7.60;;;;;;;24.16;22.40;100755.80;108568;1257;66042;-88
2024/03/22 21:18:39;;;;;;;10.20;7.70;;;;;;;24.16;22.17;100753.44;107814;1260;68375;-89
2024/03/22 21:21:04;;;;;;;9.80;7.60;;;;;;;24.17;22.33;100758.88;107687;1259;68500;-88
2024/03/22 21:23:30;;;;;;;10.30;8.20;;;;;;;24.17;22.30;100755.75;107479;1257;68420;-88
2024/03/22 21:25:56;;;;;;;9.60;7.90;;;;;;;24.18;22.21;100756.56;107697;1260;68336;-88
2024/03/22 21:28:21;;;;;;;9.80;7.90;;;;;;;24.18;22.25;100758.46;107737;1257;68422;-88
2024/03/22 21:30:47;;;;;;;9.60;7.90;;;;;;;24.18;22.29;100757.17;107897;1258;68378;-88
2024/03/22 21:33:12;;;;;;;11.30;8.00;;;;;;;24.18;22.40;100757.76;107869;1258;68348;-88
2024/03/22 21:38:21;;;;;;;8.80;7.90;;;;;;;24.19;22.13;100752.85;107778;1257;73584;-88
2024/03/22 21:40:47;;;;;;;10.00;7.50;;;;;;;24.19;22.22;100751.62;107751;1257;68410;-88
2024/03/22 21:43:12;;;;;;;9.40;7.80;;;;;;;24.20;22.27;100751.72;107754;1260;68441;-88
2024/03/22 21:45:38;;;;;;;9.70;8.20;;;;;;;24.20;22.34;100749.23;107729;1261;68409;-88
2024/03/22 21:48:05;;;;;;;10.50;8.30;;;;;;;24.21;22.24;100752.00;108038;1256;68374;-86
2024/03/22 21:50:31;;;;;;;11.20;8.00;;;;;;;24.20;22.25;100748.10;107654;1261;68362;-89
2024/03/22 21:53:05;;;;;;;9.20;8.10;;;;;;;24.21;22.29;100742.69;107843;1260;67366;-88
2024/03/22 21:55:31;;;;;;;9.70;8.40;;;;;;;24.21;22.34;100744.75;108152;1256;68420;-88
2024/03/22 21:57:56;;;;;;;9.10;7.80;;;;;;;24.22;22.27;100743.31;107959;1257;68109;-88
2024/03/22 22:00:22;;;;;;;10.40;7.80;;;;;;;24.21;22.20;100738.88;108098;1257;68378;-89
2024/03/22 22:03:05;;;;;;;10.50;7.90;;;;;;;24.22;22.36;100738.52;107920;1260;68427;31
2024/03/22 22:08:16;;;;;;;9.50;7.90;;;;;;;24.22;22.25;100738.42;107777;1256;68737;-89
2024/03/22 22:10:42;;;;;;;9.70;7.60;;;;;;;24.22;22.34;100729.11;107719;1256;68448;-88
2024/03/22 22:13:07;;;;;;;9.90;7.60;;;;;;;24.23;22.17;100731.73;108126;1257;68425;-89
2024/03/22 22:15:33;;;;;;;9.40;7.90;;;;;;;24.23;22.22;100732.76;108114;1256;69124;-89
2024/03/22 22:17:58;;;;;;;9.60;7.00;;;;;;;24.23;22.17;100728.23;108114;1256;68365;-89
2024/03/22 22:20:24;;;;;;;9.30;7.90;;;;;;;24.24;22.09;100737.64;107613;1256;68420;-89
2024/03/22 22:22:50;;;;;;;8.30;7.00;;;;;;;24.24;22.00;100738.20;107570;1259;68372;-89
2024/03/22 22:25:15;;;;;;;11.50;7.10;;;;;;;24.23;22.16;100733.06;108035;1256;68390;-88
2024/03/22 22:27:41;;;;;;;8.00;7.20;;;;;;;24.24;22.09;100734.45;107637;1261;68269;-88
2024/03/22 22:30:08;;;;;;;9.20;7.40;;;;;;;24.24;22.06;100730.17;107623;1256;68387;-88
2024/03/22 22:35:05;;;;;;;8.10;7.10;;;;;;;24.24;22.09;100729.05;107474;1260;68423;-88
2024/03/22 22:37:31;;;;;;;9.20;7.10;;;;;;;24.24;22.01;100738.25;107565;1259;68484;-89
2024/03/22 22:39:57;;;;;;;9.20;6.90;;;;;;;24.24;22.13;100731.77;107760;1259;68342;-89
2024/03/22 22:42:24;;;;;;;9.70;7.10;;;;;;;24.24;22.12;100733.00;107682;1260;68384;-89
2024/03/22 22:44:49;;;;;;;9.90;7.00;;;;;;;24.24;22.09;100731.56;107986;1258;68346;-89
2024/03/22 22:47:15;;;;;;;10.00;7.30;;;;;;;24.24;22.02;100737.73;109548;1258;66530;-89
2024/03/22 22:49:40;;;;;;;10.10;6.90;;;;;;;24.24;22.07;100735.57;109603;1257;68359;-88
2024/03/22 22:52:06;;;;;;;12.20;7.50;;;;;;;24.25;21.94;100737.77;107905;1262;68388;-88
2024/03/22 22:54:31;;;;;;;8.00;6.90;;;;;;;24.26;22.06;100736.73;108492;1256;68853;-89
2024/03/22 22:56:57;;;;;;;8.40;7.40;;;;;;;24.26;22.01;100736.95;109581;1257;68400;-89
2024/03/22 23:02:00;;;;;;;9.60;7.30;;;;;;;24.28;21.79;100725.77;109456;1259;65765;-88
2024/03/22 23:04:26;;;;;;;8.40;7.60;;;;;;;24.29;21.84;100728.86;108097;1258;68311;-88
2024/03/22 23:06:51;;;;;;;8.50;7.70;;;;;;;24.29;21.84;100727.67;108057;1259;68407;-88
2024/03/22 23:09:17;;;;;;;11.70;7.60;;;;;;;24.30;21.97;100728.02;107932;1256;66197;-88
2024/03/22 23:11:43;;;;;;;11.50;7.60;;;;;;;24.30;21.97;100728.58;108020;1256;68433;-88
2024/03/22 23:14:08;;;;;;;9.90;7.30;;;;;;;24.30;21.80;100727.91;107499;1260;68430;-88
2024/03/22 23:16:34;;;;;;;8.50;7.00;;;;;;;24.29;21.80;100727.83;107723;1262;68301;-88
2024/03/22 23:19:00;;;;;;;8.40;7.10;;;;;;;24.30;21.77;100727.05;108941;1257;68413;-88
2024/03/22 23:21:25;;;;;;;8.00;7.20;;;;;;;24.30;21.85;100725.51;107926;1257;68801;-88
2024/03/22 23:23:51;;;;;;;7.70;6.80;;;;;;;24.29;21.64;100723.80;107708;1258;68345;-89
2024/03/22 23:28:56;;;;;;;11.60;7.20;;;;;;;24.28;21.63;100722.48;107412;1259;68378;-88
2024/03/22 23:31:21;;;;;;;10.10;6.80;;;;;;;24.29;21.77;100719.55;107397;1259;68230;-88
2024/03/22 23:33:47;;;;;;;8.70;6.80;;;;;;;24.29;21.74;100714.60;107505;1260;68428;-88
2024/03/22 23:36:16;;;;;;;8.30;7.10;;;;;;;24.28;21.73;100713.99;107774;1256;68816;-87
2024/03/22 23:38:42;;;;;;;9.80;7.20;;;;;;;24.28;21.61;100711.27;107649;1259;68443;-88
2024/03/22 23:43:51;;;;;;;8.40;7.50;;;;;;;24.27;21.51;100711.28;107372;1259;68411;-88
2024/03/22 23:46:16;;;;;;;11.90;7.90;;;;;;;24.27;21.64;100710.67;108042;1256;66113;-88
2024/03/22 23:48:42;;;;;;;9.70;7.30;;;;;;;24.26;21.63;100703.15;107619;1260;68407;-88
2024/03/22 23:51:07;;;;;;;8.60;7.40;;;;;;;24.27;21.53;100705.05;107621;1256;68388;-88
2024/03/22 23:53:42;;;;;;;8.60;7.40;;;;;;;24.26;21.62;100701.88;108004;1256;68522;31
2024/03/22 23:58:51;;;;;;;7.80;7.10;;;;;;;24.26;21.62;100694.02;107629;1257;74736;-88
